"WATCHING THE WEATHER TO PROTECT LIFE AND PROPERTY"


THERE ARE CURRENTLY NO WATCHES NOR WARNINGS


Aviation
Satellite (InfraRed)


TNCA 211600Z 09017KT 9999 SCT021 29/22 Q1014 NOSIG
TNCB 211555Z 10014KT 060V140 9999 SCT021 SCT025 28/22 Q1014
TNCC 211600Z 09011KT 9999 VCSH SCT024 28/22 Q1014 NOSIG=